Airfield :
LOGIN :

Register | Disclaimer

   EN    FR    IT 

 










Legend :    VFR   Marginal VFR   IFR   Intensive IFR   Very Intensive IFR
Visi :
Ceiling :
>= 8 km
>= 3000ft
5 to 8 km
1000 to 3000 ft
1500m to 5 km
500 to 1000 ft
800 to 1500m
200 to 500 ft
< 800m
< 200 ft
Symbols :   Thunderstorms  Fog  Heavy snow  Heavy precipitations  Wind > 20 kt
SIGMETs :     Misc.  Thunderstorms  Icing  Turbulence  Mountain Waves  Volcanic Ashes







- Airport Elevation : 614 ft
- IATA code : CRL


EBCI - Charleroi

CURRENT METAR :
  • 191620Z 31004KT 260V360 9999 FEW035 15/09 Q1020 NOSIG

EXPIRED METARs :
  • 191550Z 29004KT 260V330 9999 FEW035 16/08 Q1020 NOSIG
  • 191520Z 33006KT 290V020 9999 FEW035 16/08 Q1020 NOSIG
  • 191450Z 31006KT 270V350 9999 FEW033 16/06 Q1019 NOSIG
  • 191420Z 34005KT 270V020 9999 SCT030 16/07 Q1020 NOSIG
  • 191350Z 33006KT 260V010 9999 SCT030 16/08 Q1020 NOSIG

TAF TAF EBCI
Valid from the 19 at 12:00 until the 20 at 18:00 UTC


191120Z 1912/2018 32005KT 9999 SCT020
TEMPO 2000/2007 3500 BR
No reported NOTAMs for that airfield.



MET'MAP, your aeronautical weather chart ! - Copyright ORBIFLY December 2007 - Disclaimer

ORBIFLY MET'MAP TEAM :

Programming & Development : Alexandra Zaïnal
Concept & Development : Baudouin d'Aumeries
Co-Development & Prog : Marc-Olivier Méhu
Technical & hardware support : Manuel Goepfert

Contact : metmap@orbifly.com




SOURCES & CREDITS :

   NOAA